View Sortable Currents For Network
ASOSAWOSCoCoRaHSCOOPDCPISUSM
SchoolNetOtherSCANMy FavoritesBy StateRWIS
RWIS SurfaceRWIS TrafficRWIS SoilBy NWS WFOUSCRN

Current SCAN Conditions

Sorted by: (Station ID)     Click on a column to sort it.
ADD: Station: Ob Time Temps °F   Wind [knots]  
Air (Hi / Lo) DewP Feels RH% Speed Direction Gust @Time Solar Rad
Rodgers Farm01:00 PM 49(49/23) 31 49 50 000
Crescent Lake No101:00 PM 43(43/29) 28 43 55 000
Mason01:00 PM 32(32/27) 29 32 90 000
Ames01:00 PM 44(44/20) 22 44 42 000
Spickard01:00 PM 44(44/20) 23 44 42 000
Dexter02:00 PM 40(40/28) 32 40 000
Mt Vernon01:00 PM 44(44/15) 26 44 49 000
Powell Gardens01:00 PM 46(46/16) 22 46 39 000
SHAGBARK HILLS01:00 PM 48(48/25) 27 48 44 000
Eros Data Center01:00 PM 54(55/22) 29 54 38 000
Schell-Osage02:00 PM 50(50/15) 26 50 39 000
Journagan Ranch02:00 PM 45(45/24) 19 45 34 000
CMRB LTAR02:00 PM 42(42/23) 14 42 32 000
Platteville02:00 PM 40(40/18) 21 40 47 000
Elsberry PMC02:00 PM 38(38/27) 27 38 63 000
Carver Farm02:00 PM 43(43/27) 22 43 43 000
Busby Farm02:00 PM 44(44/27) 20 44 39 000
Mark Twain HS02:00 PM 40(40/27) 22 40 50 000
Twin Pines Conservation02:00 PM 44(44/25) 21 44 39 000
Shaw Nature Reserve02:00 PM 39(39/26) 28 39 65 000


SCAN Soil Conditions

  2 inch 4 inch 8 inch 20 inch 40 inch
Station: Ob Time: Moist:Temp: Moist:Temp: Moist:Temp: Moist:Temp: Moist:Temp:
Rodgers Farm01:00 PM 300 380 410 510 510
Crescent Lake No101:00 PM 90 160 180 80 90
Mason01:00 PM 110 90 120 160 280
Ames01:00 PM 360 440 450 510 560
Spickard01:00 PM 00 310 380 410 520
Dexter02:00 PM 270 270 280 300 320
Mt Vernon01:00 PM 310 200 260 400 00
Powell Gardens01:00 PM 310 300 330 260 400
SHAGBARK HILLS01:00 PM 400 350 360 350 400
Eros Data Center01:00 PM 250 350 310 310 390
Schell-Osage02:00 PM -1000 310 310 330 -1000
Journagan Ranch02:00 PM 210 10 330 400 450
CMRB LTAR02:00 PM 420 370 370 640 480
Platteville02:00 PM 350 360 380 410 510
Elsberry PMC02:00 PM 390 370 360 350 350
Carver Farm02:00 PM 270 380 330 320 590
Busby Farm02:00 PM 360 370 350 430 450
Mark Twain HS02:00 PM 330 330 330 510 540
Twin Pines Conservation02:00 PM 210 220 230 130 200
Shaw Nature Reserve02:00 PM 270 320 290 360 410